createdAt,value
2018-09-28T00:01:40.024Z,5.87
2018-09-28T00:04:08.726Z,5.20
2018-09-28T00:06:37.415Z,4.83
2018-09-28T00:09:08.708Z,4.50
2018-09-28T00:11:37.407Z,4.50
2018-09-28T00:14:06.148Z,5.47
2018-09-28T00:16:34.847Z,5.30
2018-09-28T00:19:03.727Z,4.80
2018-09-28T00:21:32.382Z,5.27
2018-09-28T00:24:01.361Z,5.07
2018-09-28T00:26:30.116Z,5.70
2018-09-28T00:28:58.850Z,4.63
2018-09-28T00:31:27.642Z,4.43
2018-09-28T00:33:56.221Z,5.07
2018-09-28T00:36:24.872Z,5.60
2018-09-28T00:38:53.693Z,4.93
2018-09-28T00:41:22.283Z,4.87
2018-09-28T00:43:50.992Z,5.00
2018-09-28T00:46:19.553Z,5.37
2018-09-28T00:48:48.099Z,5.47
2018-09-28T00:51:16.922Z,5.03
2018-09-28T00:53:45.481Z,5.10
2018-09-28T00:56:14.048Z,4.83
2018-09-28T00:58:42.646Z,4.87
2018-09-28T01:01:11.253Z,5.17
2018-09-28T01:03:39.984Z,5.00
2018-09-28T01:06:08.597Z,5.40
2018-09-28T01:08:37.596Z,4.80
2018-09-28T01:11:06.464Z,6.03
2018-09-28T01:13:35.151Z,5.37
2018-09-28T01:16:03.951Z,5.77
2018-09-28T01:18:32.535Z,5.03
2018-09-28T01:21:01.178Z,5.17
2018-09-28T01:23:29.843Z,5.23
2018-09-28T01:25:58.616Z,4.93
2018-09-28T01:28:27.319Z,5.30
2018-09-28T01:30:56.104Z,5.40
2018-09-28T01:33:25.073Z,5.73
2018-09-28T01:35:53.764Z,5.03
2018-09-28T01:38:22.406Z,5.50
2018-09-28T01:40:51.134Z,4.67
2018-09-28T01:43:19.741Z,5.17
2018-09-28T01:45:48.538Z,4.87
2018-09-28T01:48:17.196Z,5.10
2018-09-28T01:50:45.998Z,5.43
2018-09-28T01:53:14.635Z,4.97
2018-09-28T01:55:43.398Z,5.13
2018-09-28T01:58:12.147Z,5.67
2018-09-28T02:00:41.027Z,5.97
2018-09-28T02:03:09.670Z,6.10
2018-09-28T02:05:38.720Z,4.67
2018-09-28T02:08:07.586Z,4.80
2018-09-28T02:10:36.390Z,6.67
2018-09-28T02:13:05.246Z,5.67
2018-09-28T02:15:34.166Z,6.23
2018-09-28T02:18:03.114Z,5.30
2018-09-28T02:20:32.008Z,5.87
2018-09-28T02:23:01.044Z,5.47
2018-09-28T02:25:29.979Z,5.60
2018-09-28T02:27:58.909Z,5.33
2018-09-28T02:30:27.903Z,5.87
2018-09-28T02:32:56.652Z,5.30
2018-09-28T02:35:25.457Z,5.20
2018-09-28T02:37:54.207Z,5.13
2018-09-28T02:40:22.864Z,5.30
2018-09-28T02:42:51.796Z,5.73
2018-09-28T02:45:20.774Z,5.20
2018-09-28T02:47:49.497Z,6.10
2018-09-28T02:50:18.329Z,5.87
2018-09-28T02:52:47.272Z,5.07
2018-09-28T02:55:16.241Z,5.70
2018-09-28T02:57:45.424Z,5.97
2018-09-28T03:00:14.321Z,6.60
2018-09-28T03:02:43.316Z,7.17
2018-09-28T03:05:12.175Z,6.00
2018-09-28T03:07:41.071Z,5.33
2018-09-28T03:10:09.802Z,5.97
2018-09-28T03:12:38.715Z,6.43
2018-09-28T03:15:07.403Z,5.93
2018-09-28T03:17:36.148Z,6.60
2018-09-28T03:20:05.405Z,6.33
2018-09-28T03:22:34.041Z,5.23
2018-09-28T03:25:02.879Z,6.20
2018-09-28T03:27:31.635Z,6.13
2018-09-28T03:30:00.331Z,6.77
2018-09-28T03:32:29.011Z,6.23
2018-09-28T03:34:57.681Z,6.77
2018-09-28T03:37:26.551Z,6.40
2018-09-28T03:39:55.359Z,6.20
2018-09-28T03:42:24.075Z,6.23
2018-09-28T03:44:53.264Z,7.00
2018-09-28T03:47:22.215Z,6.27
2018-09-28T03:49:51.042Z,6.70
2018-09-28T03:52:19.835Z,7.33
2018-09-28T03:54:48.553Z,7.23
2018-09-28T03:57:17.294Z,6.50
2018-09-28T03:59:46.055Z,6.90
2018-09-28T04:02:14.887Z,6.93
2018-09-28T04:04:43.704Z,6.90
2018-09-28T04:07:12.464Z,7.23
2018-09-28T04:09:41.104Z,6.97
2018-09-28T04:12:09.866Z,7.43
2018-09-28T04:14:38.738Z,6.90
2018-09-28T04:17:07.309Z,7.17
2018-09-28T04:19:36.082Z,6.90
2018-09-28T04:22:04.847Z,7.03
2018-09-28T04:24:33.572Z,6.50
2018-09-28T04:27:02.269Z,6.80
2018-09-28T04:29:30.949Z,6.60
2018-09-28T04:31:59.739Z,6.57
2018-09-28T04:34:28.567Z,7.07
2018-09-28T04:36:57.227Z,7.17
2018-09-28T04:39:25.696Z,7.23
2018-09-28T04:41:54.337Z,6.13
2018-09-28T04:44:22.905Z,7.27
2018-09-28T04:46:51.469Z,6.60
2018-09-28T04:49:19.960Z,6.80
2018-09-28T04:51:49.350Z,7.30
2018-09-28T04:54:17.938Z,7.97
2018-09-28T04:56:46.787Z,6.80
2018-09-28T04:59:15.341Z,7.73
2018-09-28T05:01:43.943Z,7.90
2018-09-28T05:04:12.678Z,7.77
2018-09-28T05:06:41.203Z,7.70
2018-09-28T05:09:12.080Z,8.20
2018-09-28T05:11:40.885Z,8.40
2018-09-28T05:14:09.868Z,8.57
2018-09-28T05:16:43.010Z,7.87
2018-09-28T05:19:12.102Z,9.33
2018-09-28T05:21:40.639Z,8.97
2018-09-28T05:24:09.279Z,8.23
2018-09-28T05:26:38.250Z,8.97
2018-09-28T05:29:07.128Z,8.00
2018-09-28T05:31:35.621Z,8.70
2018-09-28T05:34:04.096Z,10.50
2018-09-28T05:36:32.552Z,8.00
2018-09-28T05:39:01.090Z,8.43
2018-09-28T05:41:29.615Z,8.60
2018-09-28T05:43:58.163Z,8.13
2018-09-28T05:46:26.756Z,9.03
2018-09-28T05:48:55.251Z,9.03
2018-09-28T05:51:24.042Z,9.00
2018-09-28T05:53:52.749Z,8.33
2018-09-28T05:56:21.602Z,9.13
2018-09-28T05:58:55.332Z,8.73
2018-09-28T06:01:29.343Z,8.30
2018-09-28T06:04:03.157Z,9.57
2018-09-28T06:06:31.756Z,8.90
2018-09-28T06:09:00.423Z,7.93
2018-09-28T06:11:29.181Z,9.80
2018-09-28T06:13:57.778Z,8.30
2018-09-28T06:16:26.456Z,8.17
2018-09-28T06:18:55.091Z,9.07
2018-09-28T06:21:23.641Z,9.50
2018-09-28T06:23:52.265Z,9.67
2018-09-28T06:26:20.830Z,9.63
2018-09-28T06:28:49.441Z,9.63
2018-09-28T06:31:18.320Z,10.17
2018-09-28T06:33:47.822Z,10.27
2018-09-28T06:36:17.252Z,10.17
2018-09-28T06:38:45.890Z,11.23
2018-09-28T06:41:28.569Z,11.07
2018-09-28T06:44:07.590Z,11.90
2018-09-28T06:46:37.040Z,11.63
2018-09-28T06:49:05.693Z,13.47
2018-09-28T06:51:34.327Z,13.03
2018-09-28T06:54:02.983Z,14.67
2018-09-28T06:56:32.424Z,15.00
2018-09-28T06:59:13.635Z,14.67
2018-09-28T07:01:43.673Z,17.80
2018-09-28T07:04:12.663Z,16.80
2018-09-28T07:06:41.250Z,17.23
2018-09-28T07:09:16.208Z,16.03
2018-09-28T07:11:45.250Z,14.67
2018-09-28T07:14:13.858Z,17.03
2018-09-28T07:16:42.521Z,17.33
2018-09-28T07:19:11.161Z,19.87
2018-09-28T07:21:39.983Z,19.63
2018-09-28T07:24:08.616Z,18.10
2018-09-28T07:26:37.195Z,19.83
2018-09-28T07:29:05.870Z,21.40
2018-09-28T07:31:34.478Z,24.53
2018-09-28T07:34:03.167Z,26.27
2018-09-28T07:36:31.991Z,27.80
2018-09-28T07:39:00.497Z,27.80
2018-09-28T07:41:29.261Z,27.53
2018-09-28T07:43:58.333Z,28.37
2018-09-28T07:46:27.000Z,25.30
2018-09-28T07:48:55.648Z,27.93
2018-09-28T07:51:24.356Z,25.40
2018-09-28T07:54:01.110Z,24.90
2018-09-28T07:59:18.829Z,21.57
2018-09-28T08:01:48.472Z,23.57
2018-09-28T08:04:37.985Z,22.57
2018-09-28T08:07:06.639Z,23.27
2018-09-28T08:09:35.291Z,26.03
2018-09-28T08:12:09.113Z,26.83
2018-09-28T08:14:46.507Z,29.10
2018-09-28T08:17:15.677Z,29.07
2018-09-28T08:19:44.441Z,28.83
2018-09-28T08:22:13.079Z,30.13
2018-09-28T08:24:41.713Z,30.80
2018-09-28T08:27:10.260Z,32.43
2018-09-28T08:29:38.855Z,35.07
2018-09-28T08:32:07.520Z,38.03
2018-09-28T08:34:36.188Z,35.57
2018-09-28T08:37:04.848Z,37.00
2018-09-28T08:39:33.386Z,36.13
2018-09-28T08:42:02.080Z,37.40
2018-09-28T08:44:31.711Z,35.07
2018-09-28T08:47:00.338Z,33.40
2018-09-28T08:49:29.018Z,34.17
2018-09-28T08:51:58.334Z,29.67
2018-09-28T08:54:27.063Z,24.40
2018-09-28T08:56:56.096Z,25.20
2018-09-28T08:59:24.937Z,24.57
2018-09-28T09:01:53.722Z,24.53
2018-09-28T09:04:22.461Z,19.63
2018-09-28T09:06:51.693Z,21.37
2018-09-28T09:09:20.479Z,19.73
2018-09-28T09:11:49.132Z,18.63
2018-09-28T09:14:17.914Z,20.53
2018-09-28T09:16:46.600Z,16.80
2018-09-28T09:19:16.586Z,15.00
2018-09-28T09:21:45.284Z,12.80
2018-09-28T09:24:13.968Z,13.10
2018-09-28T09:26:42.687Z,11.77
2018-09-28T09:29:11.525Z,11.43
2018-09-28T09:31:40.154Z,11.17
2018-09-28T09:34:10.053Z,10.63
2018-09-28T09:36:38.645Z,9.30
2018-09-28T09:39:12.800Z,9.43
2018-09-28T09:41:41.718Z,10.63
2018-09-28T09:44:10.389Z,11.20
2018-09-28T09:46:39.027Z,11.67
2018-09-28T09:49:07.792Z,11.73
2018-09-28T09:51:36.396Z,12.37
2018-09-28T09:54:05.064Z,10.87
2018-09-28T09:56:33.697Z,9.97
2018-09-28T09:59:02.319Z,8.87
2018-09-28T10:01:36.250Z,9.20
2018-09-28T10:04:07.974Z,7.83
2018-09-28T10:06:36.755Z,7.17
2018-09-28T10:09:08.607Z,7.87
2018-09-28T10:11:37.552Z,7.20
2018-09-28T10:14:06.361Z,7.00
2018-09-28T10:16:34.882Z,7.87
2018-09-28T10:19:03.480Z,7.83
2018-09-28T10:21:32.224Z,7.40
2018-09-28T10:24:01.124Z,8.33
2018-09-28T10:26:29.938Z,8.43
2018-09-28T10:28:58.702Z,7.80
2018-09-28T10:31:27.409Z,7.70
2018-09-28T10:33:56.099Z,7.50
2018-09-28T10:36:24.803Z,8.30
2018-09-28T10:38:53.747Z,7.43
2018-09-28T10:41:22.553Z,7.50
2018-09-28T10:43:51.366Z,7.10
2018-09-28T10:46:20.376Z,7.53
2018-09-28T10:48:48.961Z,6.67
2018-09-28T10:51:17.912Z,6.93
2018-09-28T10:53:46.660Z,5.97
2018-09-28T10:56:15.166Z,4.70
2018-09-28T10:58:43.746Z,3.73
2018-09-28T11:01:12.412Z,4.07
2018-09-28T11:03:41.056Z,3.53
2018-09-28T11:06:09.677Z,3.27
2018-09-28T11:08:38.286Z,3.23
2018-09-28T11:11:06.843Z,3.13
2018-09-28T11:13:35.485Z,2.67
2018-09-28T11:16:04.202Z,3.00
2018-09-28T11:18:32.985Z,2.80
2018-09-28T11:21:01.724Z,3.37
2018-09-28T11:23:30.316Z,2.63
2018-09-28T11:25:58.929Z,2.73
2018-09-28T11:28:27.566Z,2.20
2018-09-28T11:30:56.200Z,2.60
2018-09-28T11:33:24.816Z,3.23
2018-09-28T11:35:53.461Z,3.00
2018-09-28T11:38:22.080Z,2.17
2018-09-28T11:40:50.835Z,3.17
2018-09-28T11:43:19.474Z,2.77
2018-09-28T11:45:48.259Z,2.47
2018-09-28T11:48:16.898Z,2.50
2018-09-28T11:50:45.500Z,3.27
2018-09-28T11:53:14.175Z,3.27
2018-09-28T11:55:43.017Z,2.93
2018-09-28T11:58:11.630Z,3.20
2018-09-28T12:00:40.179Z,2.70
2018-09-28T12:03:08.910Z,3.37
2018-09-28T12:05:37.523Z,3.43
2018-09-28T12:08:06.179Z,2.63
2018-09-28T12:10:34.913Z,3.17
2018-09-28T12:13:03.507Z,3.23
2018-09-28T12:15:32.470Z,3.00
2018-09-28T12:18:01.411Z,3.20
2018-09-28T12:20:30.034Z,3.20
2018-09-28T12:22:58.595Z,2.80
2018-09-28T12:25:27.244Z,3.03
2018-09-28T12:27:55.815Z,2.90
2018-09-28T12:30:25.307Z,2.83
2018-09-28T12:32:54.019Z,2.73
2018-09-28T12:35:22.685Z,2.70
2018-09-28T12:37:51.378Z,3.07
2018-09-28T12:40:19.943Z,3.20
2018-09-28T12:42:48.748Z,2.90
2018-09-28T12:45:17.509Z,3.10
2018-09-28T12:47:46.373Z,3.27
2018-09-28T12:50:15.057Z,3.33
2018-09-28T12:52:43.620Z,2.80
2018-09-28T12:55:12.167Z,3.47
2018-09-28T12:57:40.893Z,3.23
2018-09-28T13:00:09.541Z,3.57
2018-09-28T13:02:38.091Z,2.90
2018-09-28T13:05:06.748Z,3.30
2018-09-28T13:07:35.376Z,3.50
2018-09-28T13:10:03.950Z,3.50
2018-09-28T13:12:32.511Z,2.97
2018-09-28T13:15:01.273Z,3.30
2018-09-28T13:17:29.909Z,3.07
2018-09-28T13:19:58.518Z,2.67
2018-09-28T13:22:27.061Z,3.30
2018-09-28T13:24:55.670Z,3.07
2018-09-28T13:27:24.224Z,3.50
2018-09-28T13:29:52.833Z,2.70
2018-09-28T13:32:21.513Z,2.77
2018-09-28T13:34:50.126Z,7.67
2018-09-28T13:37:18.903Z,5.07
2018-09-28T13:39:47.558Z,3.03
2018-09-28T13:42:16.283Z,3.57
2018-09-28T13:44:45.158Z,2.23
2018-09-28T13:47:13.664Z,3.27
2018-09-28T13:49:42.364Z,3.30
2018-09-28T13:52:10.924Z,2.63
2018-09-28T13:54:39.503Z,2.33
2018-09-28T13:57:14.645Z,2.30
2018-09-28T13:59:43.270Z,1.93
2018-09-28T14:02:11.895Z,2.10
2018-09-28T14:04:40.433Z,3.13
2018-09-28T14:07:09.152Z,2.30
2018-09-28T14:09:37.812Z,2.80
2018-09-28T14:12:06.530Z,3.30
2018-09-28T14:14:35.035Z,2.90
2018-09-28T14:17:03.609Z,2.97
2018-09-28T14:19:32.062Z,2.53
2018-09-28T14:22:01.026Z,2.97
2018-09-28T14:24:30.534Z,3.30
2018-09-28T14:26:59.114Z,2.93
2018-09-28T14:29:27.746Z,2.27
2018-09-28T14:32:00.050Z,1.90
2018-09-28T14:34:29.694Z,2.33
2018-09-28T14:37:01.431Z,2.17
2018-09-28T14:39:30.640Z,2.67
2018-09-28T14:41:59.488Z,2.00
2018-09-28T14:44:28.515Z,2.47
2018-09-28T14:46:57.212Z,2.17
2018-09-28T14:49:25.893Z,2.00
2018-09-28T14:51:54.787Z,2.23
2018-09-28T14:54:23.918Z,1.80
2018-09-28T14:56:52.731Z,1.60
2018-09-28T14:59:21.307Z,1.73
2018-09-28T15:01:50.950Z,1.47
2018-09-28T15:04:19.696Z,2.23
2018-09-28T15:06:48.362Z,1.87
2018-09-28T15:09:17.023Z,1.40
2018-09-28T15:11:45.801Z,1.67
2018-09-28T15:14:14.684Z,2.20
2018-09-28T15:16:43.571Z,2.53
2018-09-28T15:19:12.156Z,1.70
2018-09-28T15:21:40.755Z,1.70
2018-09-28T15:24:09.427Z,1.97
2018-09-28T15:26:37.989Z,2.23
2018-09-28T15:29:06.692Z,1.83
2018-09-28T15:31:35.337Z,4.73
2018-09-28T15:34:04.001Z,3.20
2018-09-28T15:36:33.135Z,1.90
2018-09-28T15:39:01.767Z,2.10
2018-09-28T15:41:30.640Z,2.20
2018-09-28T15:43:59.253Z,3.00
2018-09-28T15:46:27.776Z,2.80
2018-09-28T15:48:56.452Z,2.37
2018-09-28T15:51:25.332Z,1.70
2018-09-28T15:53:54.071Z,1.73
2018-09-28T15:56:22.737Z,2.17
2018-09-28T15:58:51.337Z,2.33
2018-09-28T16:01:20.004Z,2.60
2018-09-28T16:03:48.648Z,1.77
2018-09-28T16:06:17.325Z,1.83
2018-09-28T16:08:45.917Z,2.50
2018-09-28T16:11:15.425Z,2.23
2018-09-28T16:13:44.197Z,1.93
2018-09-28T16:16:12.979Z,1.57
2018-09-28T16:18:42.543Z,1.53
2018-09-28T16:21:11.242Z,1.90
2018-09-28T16:23:39.853Z,1.87
2018-09-28T16:26:08.498Z,1.90
2018-09-28T16:28:37.254Z,1.73
2018-09-28T16:31:05.919Z,2.33
2018-09-28T16:33:34.659Z,1.70
2018-09-28T16:36:03.412Z,1.00
2018-09-28T16:38:32.004Z,1.47
2018-09-28T16:41:05.960Z,2.00
2018-09-28T16:43:46.479Z,1.53
2018-09-28T16:46:16.401Z,1.20
2018-09-28T16:48:47.915Z,1.93
2018-09-28T16:51:19.478Z,1.23
2018-09-28T16:56:40.961Z,1.80
2018-09-28T16:59:19.579Z,1.90
2018-09-28T17:01:51.234Z,1.40
2018-09-28T17:04:23.900Z,1.40
2018-09-28T17:06:57.246Z,1.87
2018-09-28T17:09:25.774Z,2.20
2018-09-28T17:11:54.336Z,1.70
2018-09-28T17:14:22.896Z,2.47
2018-09-28T17:16:51.652Z,1.60
2018-09-28T17:19:20.212Z,2.10
2018-09-28T17:21:50.962Z,2.17
2018-09-28T17:24:19.818Z,1.60
2018-09-28T17:26:49.525Z,1.50
2018-09-28T17:29:18.534Z,2.20
2018-09-28T17:31:48.264Z,1.67
2018-09-28T17:34:18.760Z,2.00
2018-09-28T17:36:47.630Z,2.00
2018-09-28T17:39:16.194Z,2.50
2018-09-28T17:41:44.797Z,1.40
2018-09-28T17:44:13.466Z,3.30
2018-09-28T17:46:42.300Z,2.10
2018-09-28T17:49:10.937Z,1.80
2018-09-28T17:51:39.552Z,2.00
2018-09-28T17:54:08.251Z,3.17
2018-09-28T17:56:36.875Z,2.03
2018-09-28T17:59:05.443Z,1.73
2018-09-28T18:01:34.113Z,2.17
2018-09-28T18:04:04.060Z,1.90
2018-09-28T18:06:33.161Z,2.17
2018-09-28T18:09:02.206Z,1.80
2018-09-28T18:11:31.903Z,2.03
2018-09-28T18:14:00.949Z,2.30
2018-09-28T18:16:30.337Z,1.50
2018-09-28T18:18:59.296Z,2.20
2018-09-28T18:21:28.482Z,1.90
2018-09-28T18:23:59.633Z,2.27
2018-09-28T18:26:29.041Z,1.90
2018-09-28T18:29:01.718Z,2.77
2018-09-28T18:31:31.467Z,2.70
2018-09-28T18:34:00.664Z,2.83
2018-09-28T18:36:31.834Z,1.97
2018-09-28T18:39:01.257Z,1.67
2018-09-28T18:41:30.778Z,2.10
2018-09-28T18:44:00.623Z,1.73
2018-09-28T18:46:36.486Z,2.40
2018-09-28T18:49:05.737Z,1.90
2018-09-28T18:51:36.551Z,2.20
2018-09-28T18:54:06.905Z,2.33
2018-09-28T18:56:36.046Z,2.70
2018-09-28T18:59:06.125Z,2.23
2018-09-28T19:01:35.516Z,2.20
2018-09-28T19:04:05.496Z,1.90
2018-09-28T19:06:34.319Z,2.03
2018-09-28T19:09:03.155Z,2.03
2018-09-28T19:11:37.466Z,1.80
2018-09-28T19:14:06.269Z,2.20
2018-09-28T19:16:34.922Z,1.50
2018-09-28T19:19:03.654Z,1.87
2018-09-28T19:21:32.466Z,2.53
2018-09-28T19:24:01.260Z,2.70
2018-09-28T19:26:30.139Z,1.83
2018-09-28T19:28:58.844Z,3.40
2018-09-28T19:31:27.660Z,2.20
2018-09-28T19:33:56.364Z,2.27
2018-09-28T19:36:24.996Z,2.13
2018-09-28T19:38:53.857Z,2.13
2018-09-28T19:41:22.572Z,2.03
2018-09-28T19:43:52.023Z,2.00
2018-09-28T19:46:21.025Z,1.97
2018-09-28T19:48:49.723Z,2.07
2018-09-28T19:51:18.661Z,1.97
2018-09-28T19:53:47.530Z,4.33
2018-09-28T19:56:16.173Z,2.70
2018-09-28T19:58:44.817Z,2.20
2018-09-28T20:01:13.471Z,2.47
2018-09-28T20:06:52.917Z,2.20
2018-09-28T20:09:21.886Z,2.87
2018-09-28T20:11:51.132Z,2.47
2018-09-28T20:14:20.508Z,2.60
2018-09-28T20:16:51.076Z,2.80
2018-09-28T20:19:20.216Z,2.80
2018-09-28T20:21:49.389Z,3.00
2018-09-28T20:24:18.764Z,2.37
2018-09-28T20:26:48.099Z,2.90
2018-09-28T20:29:16.848Z,1.87
2018-09-28T20:31:45.625Z,2.00
2018-09-28T20:34:14.298Z,2.90
2018-09-28T20:36:43.051Z,2.80
2018-09-28T20:39:13.256Z,2.50
2018-09-28T20:41:42.467Z,2.50
2018-09-28T20:44:11.195Z,2.80
2018-09-28T20:46:39.821Z,2.63
2018-09-28T20:49:08.665Z,2.17
2018-09-28T20:51:37.598Z,2.30
2018-09-28T20:54:06.248Z,3.07
2018-09-28T20:56:35.398Z,2.50
2018-09-28T20:59:04.203Z,2.43
2018-09-28T21:01:32.819Z,1.90
2018-09-28T21:04:01.569Z,2.30
2018-09-28T21:06:30.345Z,2.10
2018-09-28T21:08:59.300Z,2.07
2018-09-28T21:11:28.044Z,2.17
2018-09-28T21:13:56.829Z,2.83
2018-09-28T21:16:25.947Z,2.93
2018-09-28T21:18:54.749Z,2.60
2018-09-28T21:21:23.666Z,2.60
2018-09-28T21:23:52.287Z,2.43
2018-09-28T21:26:21.012Z,2.13
2018-09-28T21:28:49.577Z,3.97
2018-09-28T21:31:18.114Z,2.90
2018-09-28T21:33:46.903Z,3.07
2018-09-28T21:36:15.616Z,3.60
2018-09-28T21:38:44.303Z,2.67
2018-09-28T21:41:12.877Z,2.47
2018-09-28T21:43:41.736Z,3.37
2018-09-28T21:46:10.387Z,2.60
2018-09-28T21:48:39.074Z,3.00
2018-09-28T21:51:07.729Z,2.77
2018-09-28T21:53:36.560Z,3.03
2018-09-28T21:56:05.140Z,2.53
2018-09-28T21:58:33.898Z,2.47
2018-09-28T22:01:02.579Z,2.40
2018-09-28T22:03:31.210Z,3.10
2018-09-28T22:05:59.894Z,3.03
2018-09-28T22:08:28.904Z,3.43
2018-09-28T22:10:57.995Z,3.00
2018-09-28T22:13:26.765Z,3.43
2018-09-28T22:15:55.457Z,3.50
2018-09-28T22:18:24.239Z,2.90
2018-09-28T22:20:52.910Z,3.40
2018-09-28T22:23:21.601Z,3.90
2018-09-28T22:25:50.506Z,3.23
2018-09-28T22:28:19.078Z,3.40
2018-09-28T22:30:47.774Z,3.07
2018-09-28T22:33:16.359Z,3.90
2018-09-28T22:35:45.120Z,3.07
2018-09-28T22:38:13.711Z,2.70
2018-09-28T22:40:42.414Z,2.80
2018-09-28T22:43:11.119Z,3.03
2018-09-28T22:45:39.831Z,3.83
2018-09-28T22:48:08.734Z,2.77
2018-09-28T22:50:37.547Z,3.67
2018-09-28T22:53:06.433Z,3.60
2018-09-28T22:55:35.135Z,3.10
2018-09-28T22:58:10.080Z,3.53
2018-09-28T23:00:38.786Z,3.07
2018-09-28T23:03:07.488Z,3.27
2018-09-28T23:05:36.310Z,3.57
2018-09-28T23:08:04.979Z,3.03
2018-09-28T23:10:33.655Z,3.33
2018-09-28T23:13:02.358Z,3.23
2018-09-28T23:15:31.098Z,3.00
2018-09-28T23:17:59.903Z,3.20
2018-09-28T23:20:28.617Z,2.97
2018-09-28T23:22:57.216Z,3.20
2018-09-28T23:25:26.083Z,4.20
2018-09-28T23:27:54.822Z,3.67
2018-09-28T23:30:23.467Z,3.50
2018-09-28T23:32:52.018Z,3.03
2018-09-28T23:35:20.636Z,3.33
2018-09-28T23:37:49.177Z,2.47
2018-09-28T23:40:17.862Z,3.43
2018-09-28T23:42:46.417Z,2.93
2018-09-28T23:45:15.372Z,2.57
2018-09-28T23:47:44.047Z,2.90
2018-09-28T23:50:12.660Z,3.20
2018-09-28T23:58:22.158Z,3.80
